sensor_id;sensor_type;location;lat;lon;timestamp;pressure;altitude;pressure_sealevel;temperature;humidity
60307;BME280;46155;52.364;6.580;2023-05-25T03:02:54;102383.88;;;7.95;99.35
60307;BME280;46155;52.364;6.580;2023-05-25T03:05:19;102394.06;;;7.91;99.12
60307;BME280;46155;52.364;6.580;2023-05-25T03:07:45;102390.34;;;7.89;99.72
60307;BME280;46155;52.364;6.580;2023-05-25T03:10:11;102380.22;;;7.92;99.43
60307;BME280;46155;52.364;6.580;2023-05-25T03:12:37;102384.19;;;7.98;98.50
60307;BME280;46155;52.364;6.580;2023-05-25T03:15:03;102375.00;;;7.92;98.17
60307;BME280;46155;52.364;6.580;2023-05-25T03:17:28;102377.75;;;7.94;98.53
60307;BME280;46155;52.364;6.580;2023-05-25T03:19:54;102374.94;;;8.01;98.44
60307;BME280;46155;52.364;6.580;2023-05-25T03:22:19;102377.72;;;8.03;98.11
60307;BME280;46155;52.364;6.580;2023-05-25T03:24:44;102380.31;;;8.03;98.02
60307;BME280;46155;52.364;6.580;2023-05-25T03:27:10;102373.25;;;8.02;98.06
60307;BME280;46155;52.364;6.580;2023-05-25T03:29:36;102376.75;;;8.02;97.20
60307;BME280;46155;52.364;6.580;2023-05-25T03:32:01;102375.91;;;7.93;98.93
60307;BME280;46155;52.364;6.580;2023-05-25T03:34:28;102378.38;;;7.91;98.97
60307;BME280;46155;52.364;6.580;2023-05-25T03:36:53;102383.50;;;7.81;99.52
60307;BME280;46155;52.364;6.580;2023-05-25T03:39:20;102393.16;;;7.82;100.00
60307;BME280;46155;52.364;6.580;2023-05-25T03:41:46;102382.09;;;7.76;100.00
60307;BME280;46155;52.364;6.580;2023-05-25T03:44:11;102391.81;;;7.77;100.00
60307;BME280;46155;52.364;6.580;2023-05-25T03:46:37;102386.28;;;7.74;100.00
60307;BME280;46155;52.364;6.580;2023-05-25T03:49:02;102396.88;;;7.75;100.00
60307;BME280;46155;52.364;6.580;2023-05-25T03:51:28;102397.03;;;7.77;100.00
60307;BME280;46155;52.364;6.580;2023-05-25T03:53:53;102391.81;;;7.77;100.00
60307;BME280;46155;52.364;6.580;2023-05-25T03:56:19;102403.03;;;7.76;100.00
60307;BME280;46155;52.364;6.580;2023-05-25T03:58:45;102406.41;;;7.75;100.00
60307;BME280;46155;52.364;6.580;2023-05-25T04:01:10;102404.59;;;7.74;100.00
60307;BME280;46155;52.364;6.580;2023-05-25T04:03:37;102411.63;;;7.75;100.00
60307;BME280;46155;52.364;6.580;2023-05-25T04:06:02;102410.88;;;7.76;100.00
60307;BME280;46155;52.364;6.580;2023-05-25T04:08:28;102417.81;;;7.75;100.00
60307;BME280;46155;52.364;6.580;2023-05-25T04:10:53;102415.03;;;7.74;100.00
60307;BME280;46155;52.364;6.580;2023-05-25T04:13:18;102406.25;;;7.73;100.00
60307;BME280;46155;52.364;6.580;2023-05-25T04:15:43;102413.19;;;7.73;100.00
60307;BME280;46155;52.364;6.580;2023-05-25T04:18:09;102415.03;;;7.74;100.00
60307;BME280;46155;52.364;6.580;2023-05-25T04:20:35;102410.88;;;7.76;100.00
60307;BME280;46155;52.364;6.580;2023-05-25T04:23:00;102410.69;;;7.83;100.00
60307;BME280;46155;52.364;6.580;2023-05-25T04:25:25;102407.91;;;7.90;100.00
60307;BME280;46155;52.364;6.580;2023-05-25T04:27:51;102410.31;;;7.98;100.00
60307;BME280;46155;52.364;6.580;2023-05-25T04:30:17;102412.75;;;8.05;100.00
60307;BME280;46155;52.364;6.580;2023-05-25T04:32:43;102408.28;;;8.13;100.00
60307;BME280;46155;52.364;6.580;2023-05-25T04:35:09;102395.53;;;8.07;100.00
60307;BME280;46155;52.364;6.580;2023-05-25T04:37:35;102409.34;;;8.15;100.00
60307;BME280;46155;52.364;6.580;2023-05-25T04:40:01;102406.72;;;8.15;100.00
60307;BME280;46155;52.364;6.580;2023-05-25T04:42:26;102410.63;;;8.09;100.00
60307;BME280;46155;52.364;6.580;2023-05-25T04:44:52;102405.63;;;8.21;100.00
60307;BME280;46155;52.364;6.580;2023-05-25T04:47:20;102420.09;;;8.26;100.00
60307;BME280;46155;52.364;6.580;2023-05-25T04:49:45;102415.16;;;8.30;100.00
60307;BME280;46155;52.364;6.580;2023-05-25T04:52:11;102422.81;;;8.37;100.00
60307;BME280;46155;52.364;6.580;2023-05-25T04:54:36;102423.38;;;8.43;100.00
60307;BME280;46155;52.364;6.580;2023-05-25T04:57:01;102424.31;;;8.52;100.00
60307;BME280;46155;52.364;6.580;2023-05-25T04:59:27;102422.09;;;8.57;100.00
60307;BME280;46155;52.364;6.580;2023-05-25T05:01:52;102437.47;;;8.63;100.00
60307;BME280;46155;52.364;6.580;2023-05-25T05:04:17;102435.16;;;8.66;100.00
60307;BME280;46155;52.364;6.580;2023-05-25T05:06:43;102440.19;;;8.73;100.00
60307;BME280;46155;52.364;6.580;2023-05-25T05:09:08;102444.66;;;8.74;100.00
60307;BME280;46155;52.364;6.580;2023-05-25T05:11:33;102443.88;;;8.75;100.00
60307;BME280;46155;52.364;6.580;2023-05-25T05:13:59;102439.78;;;8.87;100.00
60307;BME280;46155;52.364;6.580;2023-05-25T05:16:24;102450.22;;;8.96;100.00
60307;BME280;46155;52.364;6.580;2023-05-25T05:18:49;102443.97;;;9.04;100.00
60307;BME280;46155;52.364;6.580;2023-05-25T05:21:15;102441.09;;;9.20;100.00
60307;BME280;46155;52.364;6.580;2023-05-25T05:23:43;102438.03;;;9.35;100.00
60307;BME280;46155;52.364;6.580;2023-05-25T05:26:09;102442.44;;;9.44;100.00
60307;BME280;46155;52.364;6.580;2023-05-25T05:28:36;102442.34;;;9.53;100.00
60307;BME280;46155;52.364;6.580;2023-05-25T05:31:02;102456.22;;;9.52;100.00
60307;BME280;46155;52.364;6.580;2023-05-25T05:33:27;102459.94;;;9.54;100.00
60307;BME280;46155;52.364;6.580;2023-05-25T05:35:52;102464.69;;;9.58;100.00
60307;BME280;46155;52.364;6.580;2023-05-25T05:38:18;102469.97;;;9.69;100.00
60307;BME280;46155;52.364;6.580;2023-05-25T05:40:44;102474.22;;;9.77;100.00
60307;BME280;46155;52.364;6.580;2023-05-25T05:43:11;102474.94;;;9.65;100.00
60307;BME280;46155;52.364;6.580;2023-05-25T05:45:36;102496.13;;;9.58;100.00
60307;BME280;46155;52.364;6.580;2023-05-25T05:48:02;102490.13;;;9.89;100.00
60307;BME280;46155;52.364;6.580;2023-05-25T05:50:29;102488.66;;;10.11;100.00
60307;BME280;46155;52.364;6.580;2023-05-25T05:52:54;102485.38;;;10.04;100.00
60307;BME280;46155;52.364;6.580;2023-05-25T05:55:19;102483.50;;;10.03;100.00
60307;BME280;46155;52.364;6.580;2023-05-25T05:57:45;102479.03;;;10.02;100.00
60307;BME280;46155;52.364;6.580;2023-05-25T06:00:11;102478.13;;;10.01;100.00
60307;BME280;46155;52.364;6.580;2023-05-25T06:02:36;102485.44;;;9.95;100.00
60307;BME280;46155;52.364;6.580;2023-05-25T06:05:02;102492.97;;;9.81;100.00
60307;BME280;46155;52.364;6.580;2023-05-25T06:07:27;102496.47;;;9.72;100.00
60307;BME280;46155;52.364;6.580;2023-05-25T06:09:54;102500.34;;;9.67;100.00
60307;BME280;46155;52.364;6.580;2023-05-25T06:12:20;102506.03;;;9.71;100.00
60307;BME280;46155;52.364;6.580;2023-05-25T06:14:45;102508.63;;;9.90;100.00
60307;BME280;46155;52.364;6.580;2023-05-25T06:17:13;102514.72;;;9.99;100.00
60307;BME280;46155;52.364;6.580;2023-05-25T06:19:40;102503.00;;;10.15;100.00
60307;BME280;46155;52.364;6.580;2023-05-25T06:22:06;102503.66;;;10.52;100.00
60307;BME280;46155;52.364;6.580;2023-05-25T06:24:31;102503.94;;;10.76;100.00
60307;BME280;46155;52.364;6.580;2023-05-25T06:26:57;102506.88;;;10.89;100.00
60307;BME280;46155;52.364;6.580;2023-05-25T06:29:22;102507.81;;;11.10;100.00
60307;BME280;46155;52.364;6.580;2023-05-25T06:31:47;102487.16;;;10.94;100.00
60307;BME280;46155;52.364;6.580;2023-05-25T06:34:12;102503.31;;;11.19;100.00
60307;BME280;46155;52.364;6.580;2023-05-25T06:36:38;102499.53;;;11.26;100.00
60307;BME280;46155;52.364;6.580;2023-05-25T06:39:03;102507.38;;;11.57;100.00
60307;BME280;46155;52.364;6.580;2023-05-25T06:41:28;102511.38;;;11.84;100.00
60307;BME280;46155;52.364;6.580;2023-05-25T06:43:54;102505.69;;;12.00;100.00
60307;BME280;46155;52.364;6.580;2023-05-25T06:46:20;102515.97;;;11.97;100.00
60307;BME280;46155;52.364;6.580;2023-05-25T06:48:45;102516.69;;;11.74;100.00
60307;BME280;46155;52.364;6.580;2023-05-25T06:51:11;102516.81;;;11.76;100.00
60307;BME280;46155;52.364;6.580;2023-05-25T06:53:37;102520.75;;;11.81;100.00
60307;BME280;46155;52.364;6.580;2023-05-25T06:56:03;102515.69;;;12.04;100.00
60307;BME280;46155;52.364;6.580;2023-05-25T06:58:29;102516.28;;;12.22;100.00
60307;BME280;46155;52.364;6.580;2023-05-25T07:00:54;102529.38;;;12.11;100.00
60307;BME280;46155;52.364;6.580;2023-05-25T07:03:20;102515.09;;;12.19;100.00
60307;BME280;46155;52.364;6.580;2023-05-25T07:05:45;102522.50;;;12.13;100.00
60307;BME280;46155;52.364;6.580;2023-05-25T07:08:11;102517.44;;;12.26;100.00
60307;BME280;46155;52.364;6.580;2023-05-25T07:10:36;102520.75;;;12.23;100.00
60307;BME280;46155;52.364;6.580;2023-05-25T07:13:02;102529.22;;;12.42;100.00
60307;BME280;46155;52.364;6.580;2023-05-25T07:15:27;102528.34;;;12.63;100.00
60307;BME280;46155;52.364;6.580;2023-05-25T07:17:52;102533.13;;;12.91;100.00
60307;BME280;46155;52.364;6.580;2023-05-25T07:20:21;102536.50;;;13.00;100.00
60307;BME280;46155;52.364;6.580;2023-05-25T07:22:46;102534.00;;;12.80;100.00
60307;BME280;46155;52.364;6.580;2023-05-25T07:25:13;102548.16;;;12.70;100.00
60307;BME280;46155;52.364;6.580;2023-05-25T07:27:38;102526.75;;;12.33;100.00
60307;BME280;46155;52.364;6.580;2023-05-25T07:30:04;102538.31;;;12.45;100.00
60307;BME280;46155;52.364;6.580;2023-05-25T07:32:30;102542.25;;;12.50;100.00
60307;BME280;46155;52.364;6.580;2023-05-25T07:34:55;102535.91;;;12.48;100.00
60307;BME280;46155;52.364;6.580;2023-05-25T07:37:21;102543.38;;;12.54;100.00
60307;BME280;46155;52.364;6.580;2023-05-25T07:39:46;102534.69;;;12.55;100.00
60307;BME280;46155;52.364;6.580;2023-05-25T07:42:11;102549.66;;;12.66;98.50
60307;BME280;46155;52.364;6.580;2023-05-25T07:44:37;102547.63;;;12.74;98.64
60307;BME280;46155;52.364;6.580;2023-05-25T07:47:02;102537.63;;;12.92;97.66
60307;BME280;46155;52.364;6.580;2023-05-25T07:49:27;102542.56;;;13.21;98.73
60307;BME280;46155;52.364;6.580;2023-05-25T07:51:53;102554.34;;;13.49;95.85
60307;BME280;46155;52.364;6.580;2023-05-25T07:54:18;102549.69;;;13.34;92.59
60307;BME280;46155;52.364;6.580;2023-05-25T07:56:43;102556.81;;;13.35;92.81
60307;BME280;46155;52.364;6.580;2023-05-25T07:59:09;102560.63;;;13.39;93.84
60307;BME280;46155;52.364;6.580;2023-05-25T08:01:34;102549.47;;;13.31;94.73
60307;BME280;46155;52.364;6.580;2023-05-25T08:04:00;102556.31;;;13.29;94.70
60307;BME280;46155;52.364;6.580;2023-05-25T08:06:26;102567.78;;;13.30;95.69
60307;BME280;46155;52.364;6.580;2023-05-25T08:08:51;102565.66;;;13.14;94.44
60307;BME280;46155;52.364;6.580;2023-05-25T08:11:16;102564.53;;;13.10;94.31
60307;BME280;46155;52.364;6.580;2023-05-25T08:13:42;102561.91;;;13.22;95.47
60307;BME280;46155;52.364;6.580;2023-05-25T08:16:07;102567.97;;;13.21;95.68
60307;BME280;46155;52.364;6.580;2023-05-25T08:18:33;102568.50;;;13.27;95.28
60307;BME280;46155;52.364;6.580;2023-05-25T08:20:58;102570.75;;;13.45;95.95
60307;BME280;46155;52.364;6.580;2023-05-25T08:23:24;102577.63;;;13.42;93.59
60307;BME280;46155;52.364;6.580;2023-05-25T08:25:49;102580.00;;;13.39;93.86
60307;BME280;46155;52.364;6.580;2023-05-25T08:28:15;102584.72;;;13.43;93.92
60307;BME280;46155;52.364;6.580;2023-05-25T08:30:40;102588.66;;;13.49;94.99
60307;BME280;46155;52.364;6.580;2023-05-25T08:33:08;102590.72;;;13.53;93.21
60307;BME280;46155;52.364;6.580;2023-05-25T08:35:34;102587.56;;;13.35;92.31
60307;BME280;46155;52.364;6.580;2023-05-25T08:38:03;102577.78;;;13.34;92.16
60307;BME280;46155;52.364;6.580;2023-05-25T08:40:28;102580.50;;;13.46;93.55
60307;BME280;46155;52.364;6.580;2023-05-25T08:42:53;102584.88;;;13.57;90.60
60307;BME280;46155;52.364;6.580;2023-05-25T08:45:19;102586.03;;;13.60;90.10
60307;BME280;46155;52.364;6.580;2023-05-25T08:47:46;102586.69;;;13.58;89.76
60307;BME280;46155;52.364;6.580;2023-05-25T08:50:13;102588.22;;;13.32;89.46
60307;BME280;46155;52.364;6.580;2023-05-25T08:52:44;102583.88;;;13.33;89.17
60307;BME280;46155;52.364;6.580;2023-05-25T08:55:11;102582.88;;;13.76;95.62
60307;BME280;46155;52.364;6.580;2023-05-25T08:57:46;102578.41;;;13.99;85.47
60307;BME280;46155;52.364;6.580;2023-05-25T09:00:14;102582.16;;;14.15;86.04
60307;BME280;46155;52.364;6.580;2023-05-25T09:02:49;102581.25;;;14.26;82.00
60307;BME280;46155;52.364;6.580;2023-05-25T09:05:18;102578.94;;;14.19;78.11
60307;BME280;46155;52.364;6.580;2023-05-25T09:07:45;102594.34;;;14.12;78.24
60307;BME280;46155;52.364;6.580;2023-05-25T09:10:10;102591.59;;;13.99;78.80
60307;BME280;46155;52.364;6.580;2023-05-25T09:12:37;102586.63;;;13.92;79.20
60307;BME280;46155;52.364;6.580;2023-05-25T09:15:03;102594.38;;;14.01;80.99
60307;BME280;46155;52.364;6.580;2023-05-25T09:17:28;102596.53;;;14.18;79.40
60307;BME280;46155;52.364;6.580;2023-05-25T09:19:54;102592.03;;;14.17;78.98
60307;BME280;46155;52.364;6.580;2023-05-25T09:22:19;102598.25;;;14.29;79.53
60307;BME280;46155;52.364;6.580;2023-05-25T09:24:45;102602.75;;;14.31;77.40
60307;BME280;46155;52.364;6.580;2023-05-25T09:27:12;102601.44;;;14.37;76.64
60307;BME280;46155;52.364;6.580;2023-05-25T09:29:40;102597.53;;;14.44;77.85
60307;BME280;46155;52.364;6.580;2023-05-25T09:32:06;102592.72;;;14.62;77.84
60307;BME280;46155;52.364;6.580;2023-05-25T09:34:32;102589.25;;;14.75;78.34
60307;BME280;46155;52.364;6.580;2023-05-25T09:37:03;102588.09;;;14.71;76.54
60307;BME280;46155;52.364;6.580;2023-05-25T09:39:28;102584.44;;;14.69;76.86
60307;BME280;46155;52.364;6.580;2023-05-25T09:41:55;102579.78;;;14.78;77.20
60307;BME280;46155;52.364;6.580;2023-05-25T09:44:21;102589.69;;;14.81;78.25
60307;BME280;46155;52.364;6.580;2023-05-25T09:46:46;102596.03;;;14.83;78.54
60307;BME280;46155;52.364;6.580;2023-05-25T09:49:12;102595.00;;;14.69;78.91
60307;BME280;46155;52.364;6.580;2023-05-25T09:51:37;102597.50;;;14.56;78.78
60307;BME280;46155;52.364;6.580;2023-05-25T09:54:04;102595.69;;;14.55;78.64
60307;BME280;46155;52.364;6.580;2023-05-25T09:56:32;102604.88;;;14.60;80.04
60307;BME280;46155;52.364;6.580;2023-05-25T09:58:58;102601.91;;;14.67;81.23
60307;BME280;46155;52.364;6.580;2023-05-25T10:01:23;102608.59;;;14.50;80.76
60307;BME280;46155;52.364;6.580;2023-05-25T10:03:49;102612.50;;;14.43;78.68
60307;BME280;46155;52.364;6.580;2023-05-25T10:06:15;102600.50;;;14.49;79.83
60307;BME280;46155;52.364;6.580;2023-05-25T10:08:43;102606.06;;;14.52;79.63
60307;BME280;46155;52.364;6.580;2023-05-25T10:11:12;102606.97;;;14.64;82.20
60307;BME280;46155;52.364;6.580;2023-05-25T10:13:38;102605.38;;;14.66;77.71
60307;BME280;46155;52.364;6.580;2023-05-25T10:16:07;102603.31;;;14.62;74.34
60307;BME280;46155;52.364;6.580;2023-05-25T10:18:35;102605.38;;;14.66;74.04
60307;BME280;46155;52.364;6.580;2023-05-25T10:21:03;102601.41;;;14.85;73.65
60307;BME280;46155;52.364;6.580;2023-05-25T10:23:44;102603.81;;;15.19;72.49
60307;BME280;46155;52.364;6.580;2023-05-25T10:26:15;102603.47;;;15.39;68.76
60307;BME280;46155;52.364;6.580;2023-05-25T10:28:43;102606.00;;;15.38;70.61
60307;BME280;46155;52.364;6.580;2023-05-25T10:31:11;102599.81;;;15.37;70.86
60307;BME280;46155;52.364;6.580;2023-05-25T10:33:38;102603.09;;;15.46;71.54
60307;BME280;46155;52.364;6.580;2023-05-25T10:36:03;102598.19;;;15.39;70.29
60307;BME280;46155;52.364;6.580;2023-05-25T10:38:30;102605.13;;;15.37;69.79
60307;BME280;46155;52.364;6.580;2023-05-25T10:40:58;102613.75;;;15.35;70.13
60307;BME280;46155;52.364;6.580;2023-05-25T10:43:25;102603.72;;;15.42;70.51
60307;BME280;46155;52.364;6.580;2023-05-25T10:45:51;102613.66;;;15.33;68.53
60307;BME280;46155;52.364;6.580;2023-05-25T10:48:16;102606.84;;;15.37;68.30
60307;BME280;46155;52.364;6.580;2023-05-25T10:50:48;102605.13;;;15.37;68.26
60307;BME280;46155;52.364;6.580;2023-05-25T10:53:14;102610.41;;;15.37;69.10
60307;BME280;46155;52.364;6.580;2023-05-25T10:58:15;102611.88;;;15.59;71.42
60307;BME280;46155;52.364;6.580;2023-05-25T11:00:41;102614.31;;;15.42;71.85
60307;BME280;46155;52.364;6.580;2023-05-25T11:03:07;102611.03;;;15.46;72.35
60307;BME280;46155;52.364;6.580;2023-05-25T11:05:34;102611.75;;;15.19;69.63
60307;BME280;46155;52.364;6.580;2023-05-25T11:08:02;102624.00;;;15.30;69.99
60307;BME280;46155;52.364;6.580;2023-05-25T11:18:40;102605.03;;;15.49;71.97
60307;BME280;46155;52.364;6.580;2023-05-25T11:26:20;102607.16;;;15.41;68.95
60307;BME280;46155;52.364;6.580;2023-05-25T11:28:46;102604.84;;;15.46;69.29
60307;BME280;46155;52.364;6.580;2023-05-25T11:31:12;102596.88;;;15.46;69.93
60307;BME280;46155;52.364;6.580;2023-05-25T11:33:38;102592.16;;;15.54;69.42
60307;BME280;46155;52.364;6.580;2023-05-25T11:36:04;102588.81;;;15.70;68.76
60307;BME280;46155;52.364;6.580;2023-05-25T11:38:31;102586.69;;;15.77;69.41
60307;BME280;46155;52.364;6.580;2023-05-25T11:40:57;102586.69;;;15.77;69.14
60307;BME280;46155;52.364;6.580;2023-05-25T11:43:24;102576.69;;;15.73;70.78
60307;BME280;46155;52.364;6.580;2023-05-25T11:45:56;102589.22;;;15.76;69.49
60307;BME280;46155;52.364;6.580;2023-05-25T11:48:22;102591.97;;;15.77;70.72
60307;BME280;46155;52.364;6.580;2023-05-25T11:51:03;102577.47;;;15.84;69.12
60307;BME280;46155;52.364;6.580;2023-05-25T11:53:28;102589.56;;;15.80;67.95
60307;BME280;46155;52.364;6.580;2023-05-25T11:55:54;102583.53;;;15.70;68.13
60307;BME280;46155;52.364;6.580;2023-05-25T11:58:19;102585.47;;;15.72;67.35
60307;BME280;46155;52.364;6.580;2023-05-25T12:00:44;102584.00;;;15.64;66.24
60307;BME280;46155;52.364;6.580;2023-05-25T12:03:28;102587.16;;;15.72;66.22
60307;BME280;46155;52.364;6.580;2023-05-25T12:05:53;102581.97;;;15.73;65.19
60307;BME280;46155;52.364;6.580;2023-05-25T12:08:31;102581.38;;;15.77;65.08
60307;BME280;46155;52.364;6.580;2023-05-25T12:10:56;102567.97;;;15.88;65.24
60307;BME280;46155;52.364;6.580;2023-05-25T12:13:22;102572.25;;;15.99;67.42
60307;BME280;46155;52.364;6.580;2023-05-25T12:15:47;102575.13;;;15.89;65.84
60307;BME280;46155;52.364;6.580;2023-05-25T12:18:13;102573.28;;;15.88;66.69
60307;BME280;46155;52.364;6.580;2023-05-25T12:20:38;102573.50;;;15.91;65.74
60307;BME280;46155;52.364;6.580;2023-05-25T12:23:05;102575.53;;;15.95;66.69
60307;BME280;46155;52.364;6.580;2023-05-25T12:25:31;102570.66;;;16.01;64.62
60307;BME280;46155;52.364;6.580;2023-05-25T12:28:12;102567.19;;;16.02;65.04
60307;BME280;46155;52.364;6.580;2023-05-25T12:30:39;102556.16;;;16.23;66.15
60307;BME280;46155;52.364;6.580;2023-05-25T12:33:04;102560.63;;;16.50;66.14
60307;BME280;46155;52.364;6.580;2023-05-25T12:35:43;102567.13;;;16.56;63.65
60307;BME280;46155;52.364;6.580;2023-05-25T12:38:12;102558.59;;;16.33;63.25
60307;BME280;46155;52.364;6.580;2023-05-25T12:40:39;102557.41;;;16.28;63.22
60307;BME280;46155;52.364;6.580;2023-05-25T12:43:04;102549.03;;;16.08;61.25
60307;BME280;46155;52.364;6.580;2023-05-25T12:45:30;102550.97;;;16.11;61.14
60307;BME280;46155;52.364;6.580;2023-05-25T12:47:55;102553.72;;;16.26;63.43
60307;BME280;46155;52.364;6.580;2023-05-25T12:50:21;102554.31;;;16.35;63.77
60307;BME280;46155;52.364;6.580;2023-05-25T12:52:47;102560.53;;;16.09;61.09
60307;BME280;46155;52.364;6.580;2023-05-25T12:55:29;102563.91;;;15.93;59.75
60307;BME280;46155;52.364;6.580;2023-05-25T12:57:58;102546.41;;;15.95;60.93
60307;BME280;46155;52.364;6.580;2023-05-25T13:00:36;102556.28;;;16.11;62.29
60307;BME280;46155;52.364;6.580;2023-05-25T13:03:03;102555.66;;;16.28;60.95
60307;BME280;46155;52.364;6.580;2023-05-25T13:05:30;102546.34;;;16.48;61.20
60307;BME280;46155;52.364;6.580;2023-05-25T13:08:00;102553.66;;;16.52;60.27
60307;BME280;46155;52.364;6.580;2023-05-25T13:10:29;102556.84;;;16.60;60.40
60307;BME280;46155;52.364;6.580;2023-05-25T13:12:55;102550.81;;;16.49;58.42
60307;BME280;46155;52.364;6.580;2023-05-25T13:15:22;102557.97;;;16.50;61.23
60307;BME280;46155;52.364;6.580;2023-05-25T13:17:49;102542.44;;;16.57;61.60
60307;BME280;46155;52.364;6.580;2023-05-25T13:20:19;102539.16;;;16.74;61.96
60307;BME280;46155;52.364;6.580;2023-05-25T13:22:46;102545.03;;;16.83;61.32
60307;BME280;46155;52.364;6.580;2023-05-25T13:25:12;102542.19;;;16.80;59.14
60307;BME280;46155;52.364;6.580;2023-05-25T13:27:41;102539.22;;;16.89;60.09
60307;BME280;46155;52.364;6.580;2023-05-25T13:30:10;102536.22;;;16.98;59.85
60307;BME280;46155;52.364;6.580;2023-05-25T13:32:36;102547.03;;;17.01;59.53
60307;BME280;46155;52.364;6.580;2023-05-25T13:35:02;102543.38;;;16.99;58.75
60307;BME280;46155;52.364;6.580;2023-05-25T13:37:29;102545.44;;;16.90;58.63
60307;BME280;46155;52.364;6.580;2023-05-25T13:39:55;102540.16;;;16.76;58.36
60307;BME280;46155;52.364;6.580;2023-05-25T13:42:22;102537.94;;;16.69;59.87
60307;BME280;46155;52.364;6.580;2023-05-25T13:44:47;102527.72;;;16.75;59.30
60307;BME280;46155;52.364;6.580;2023-05-25T13:47:13;102529.53;;;16.76;57.63
60307;BME280;46155;52.364;6.580;2023-05-25T13:49:38;102528.47;;;16.59;57.83
60307;BME280;46155;52.364;6.580;2023-05-25T13:52:04;102525.91;;;16.61;58.71
60307;BME280;46155;52.364;6.580;2023-05-25T13:54:29;102536.91;;;16.67;58.47
60307;BME280;46155;52.364;6.580;2023-05-25T13:56:54;102531.66;;;16.53;58.13
60307;BME280;46155;52.364;6.580;2023-05-25T13:59:20;102529.72;;;16.51;57.79
60307;BME280;46155;52.364;6.580;2023-05-25T14:01:45;102528.19;;;16.55;59.69
60307;BME280;46155;52.364;6.580;2023-05-25T14:04:11;102531.94;;;16.58;58.12
60307;BME280;46155;52.364;6.580;2023-05-25T14:06:39;102530.88;;;16.69;56.64
60307;BME280;46155;52.364;6.580;2023-05-25T14:09:04;102535.84;;;16.78;55.28
60307;BME280;46155;52.364;6.580;2023-05-25T14:11:30;102518.88;;;16.61;55.48
60307;BME280;46155;52.364;6.580;2023-05-25T14:13:55;102517.25;;;16.63;57.53
60307;BME280;46155;52.364;6.580;2023-05-25T14:16:20;102509.81;;;16.58;58.38
60307;BME280;46155;52.364;6.580;2023-05-25T14:18:46;102512.28;;;16.55;56.92
60307;BME280;46155;52.364;6.580;2023-05-25T14:21:11;102518.44;;;16.40;56.82
60307;BME280;46155;52.364;6.580;2023-05-25T14:23:37;102521.28;;;16.30;57.42
60307;BME280;46155;52.364;6.580;2023-05-25T14:26:02;102517.44;;;16.25;57.04
60307;BME280;46155;52.364;6.580;2023-05-25T14:28:28;102516.59;;;16.39;57.05
60307;BME280;46155;52.364;6.580;2023-05-25T14:30:53;102519.81;;;16.48;57.10
60307;BME280;46155;52.364;6.580;2023-05-25T14:33:18;102518.16;;;16.64;58.34
60307;BME280;46155;52.364;6.580;2023-05-25T14:35:44;102518.81;;;16.46;56.95
60307;BME280;46155;52.364;6.580;2023-05-25T14:38:09;102512.09;;;16.38;58.43
60307;BME280;46155;52.364;6.580;2023-05-25T14:40:34;102519.63;;;16.59;58.27
60307;BME280;46155;52.364;6.580;2023-05-25T14:43:00;102513.03;;;16.67;57.43
60307;BME280;46155;52.364;6.580;2023-05-25T14:45:25;102523.25;;;16.74;57.44
60307;BME280;46155;52.364;6.580;2023-05-25T14:47:50;102515.06;;;16.71;56.78
60307;BME280;46155;52.364;6.580;2023-05-25T14:50:16;102514.78;;;16.66;58.56
60307;BME280;46155;52.364;6.580;2023-05-25T14:52:41;102505.69;;;16.76;57.26
60307;BME280;46155;52.364;6.580;2023-05-25T14:55:07;102513.44;;;16.73;58.00
60307;BME280;46155;52.364;6.580;2023-05-25T14:57:33;102509.91;;;16.59;58.38
60307;BME280;46155;52.364;6.580;2023-05-25T14:59:59;102521.66;;;16.49;58.92
60307;BME280;46155;52.364;6.580;2023-05-25T15:02:24;102513.34;;;16.43;60.12
60307;BME280;46155;52.364;6.580;2023-05-25T15:04:49;102509.19;;;16.62;60.20
60307;BME280;46155;52.364;6.580;2023-05-25T15:07:15;102506.31;;;16.72;59.97
60307;BME280;46155;52.364;6.580;2023-05-25T15:09:41;102510.25;;;16.79;60.86
60307;BME280;46155;52.364;6.580;2023-05-25T15:12:06;102523.97;;;16.58;58.40
60307;BME280;46155;52.364;6.580;2023-05-25T15:14:32;102514.94;;;16.41;58.82
60307;BME280;46155;52.364;6.580;2023-05-25T15:16:58;102525.78;;;16.31;59.03
60307;BME280;46155;52.364;6.580;2023-05-25T15:19:23;102517.13;;;16.33;58.71
60307;BME280;46155;52.364;6.580;2023-05-25T15:21:48;102514.94;;;16.41;58.35
60307;BME280;46155;52.364;6.580;2023-05-25T15:24:14;102515.66;;;16.39;57.76
60307;BME280;46155;52.364;6.580;2023-05-25T15:26:41;102509.66;;;16.41;59.73
60307;BME280;46155;52.364;6.580;2023-05-25T15:29:07;102509.31;;;16.50;58.52
60307;BME280;46155;52.364;6.580;2023-05-25T15:31:33;102513.38;;;16.58;56.94
60307;BME280;46155;52.364;6.580;2023-05-25T15:33:58;102501.50;;;16.51;57.13
60307;BME280;46155;52.364;6.580;2023-05-25T15:36:24;102516.66;;;16.54;58.02
60307;BME280;46155;52.364;6.580;2023-05-25T15:38:50;102523.09;;;16.44;56.67
60307;BME280;46155;52.364;6.580;2023-05-25T15:41:15;102516.59;;;16.26;57.14
60307;BME280;46155;52.364;6.580;2023-05-25T15:43:41;102513.09;;;16.12;58.65
60307;BME280;46155;52.364;6.580;2023-05-25T15:46:06;102514.66;;;16.37;59.42
60307;BME280;46155;52.364;6.580;2023-05-25T15:48:31;102509.38;;;16.37;59.34
60307;BME280;46155;52.364;6.580;2023-05-25T15:50:57;102508.22;;;16.46;60.50
60307;BME280;46155;52.364;6.580;2023-05-25T15:53:22;102491.19;;;16.43;60.69
60307;BME280;46155;52.364;6.580;2023-05-25T15:55:47;102502.91;;;16.46;59.96
60307;BME280;46155;52.364;6.580;2023-05-25T15:58:13;102506.97;;;16.55;59.32
60307;BME280;46155;52.364;6.580;2023-05-25T16:00:39;102514.31;;;16.59;59.74
60307;BME280;46155;52.364;6.580;2023-05-25T16:03:05;102513.97;;;16.26;58.88